Skip Navigation LinksHome page > Weather > Current weather Skip Navigation Links

Current Weather

San Francisco International, San Francisco

For information only: do not use for flight planning or navigation.
Latest weather
Observation time Friday, August 18, 2017 9:56 PM PDT
Local time Friday, August 18, 2017 10:15 PM PDT
Flight conditions Visual Meteorological Conditions
Winds
Wind direction West-Northwest (300°)
Wind speed 9 mph
Visibility 10 mi.
Sky condition
Ceiling unlimited
Cloud layer few clouds 800 ft.
Temperature 62°F
Dewpoint 56°F
Altimeter 29.95 in.Hg
Derived measurements
Relative humidity 80%
Density altitude 393 ft.
Sea-level pressure 29.95 in.Hg
Remarks
Automated weather observing station with precipitation discriminator.
METAR KSFO 190456Z 30008KT 10SM FEW008 17/13 A2995 RMK AO2 SLP142 T01670133

Settings

Location code

InnerDrive.Weather 4.0.6144.1 Release CLR 4.0.30319.36366
Copyright ©2015 Inner Drive Technology. All rights reserved. Portions Copyright ©1986-2015 David Braverman.

Find weather

Site navigation


Skip Navigation Links

Place info

Page info

PayPal - The safer, easier way to pay online!

Return home.

Copyright ©2017 Inner Drive Technology. Purveyors of fine, hand-crafted computer software. Page printed 2017-08-19T05:15:12 UTC.